sensor_id;sensor_type;location;lat;lon;timestamp;P1;durP1;ratioP1;P2;durP2;ratioP2
65581;SDS011;52231;40.090;18.348;2024-02-26T00:02:12;21.90;;;5.32;;
65581;SDS011;52231;40.090;18.348;2024-02-26T00:04:41;26.00;;;5.30;;
65581;SDS011;52231;40.090;18.348;2024-02-26T00:07:09;21.98;;;4.78;;
65581;SDS011;52231;40.090;18.348;2024-02-26T00:09:37;14.32;;;2.95;;
65581;SDS011;52231;40.090;18.348;2024-02-26T00:12:06;17.02;;;3.08;;
65581;SDS011;52231;40.090;18.348;2024-02-26T00:14:34;11.77;;;2.22;;
65581;SDS011;52231;40.090;18.348;2024-02-26T00:17:02;8.52;;;2.08;;
65581;SDS011;52231;40.090;18.348;2024-02-26T00:19:30;11.52;;;1.95;;
65581;SDS011;52231;40.090;18.348;2024-02-26T00:21:58;16.58;;;2.80;;
65581;SDS011;52231;40.090;18.348;2024-02-26T00:24:26;10.52;;;2.10;;
65581;SDS011;52231;40.090;18.348;2024-02-26T00:26:54;13.45;;;2.13;;
65581;SDS011;52231;40.090;18.348;2024-02-26T00:29:22;11.80;;;2.00;;
65581;SDS011;52231;40.090;18.348;2024-02-26T00:31:50;13.07;;;2.25;;
65581;SDS011;52231;40.090;18.348;2024-02-26T00:34:18;12.82;;;1.92;;
65581;SDS011;52231;40.090;18.348;2024-02-26T00:36:46;11.02;;;2.13;;
65581;SDS011;52231;40.090;18.348;2024-02-26T00:39:14;13.93;;;2.50;;
65581;SDS011;52231;40.090;18.348;2024-02-26T00:41:43;14.02;;;2.17;;
65581;SDS011;52231;40.090;18.348;2024-02-26T00:44:11;19.00;;;3.08;;
65581;SDS011;52231;40.090;18.348;2024-02-26T00:46:39;14.48;;;2.75;;
65581;SDS011;52231;40.090;18.348;2024-02-26T00:49:07;15.10;;;2.97;;
65581;SDS011;52231;40.090;18.348;2024-02-26T00:51:35;14.27;;;2.80;;
65581;SDS011;52231;40.090;18.348;2024-02-26T00:54:03;16.65;;;3.47;;
65581;SDS011;52231;40.090;18.348;2024-02-26T00:56:31;15.82;;;3.60;;
65581;SDS011;52231;40.090;18.348;2024-02-26T00:59:00;14.05;;;3.38;;
65581;SDS011;52231;40.090;18.348;2024-02-26T01:01:28;13.10;;;3.65;;
65581;SDS011;52231;40.090;18.348;2024-02-26T01:03:56;14.90;;;4.18;;
65581;SDS011;52231;40.090;18.348;2024-02-26T01:06:25;16.70;;;4.45;;
65581;SDS011;52231;40.090;18.348;2024-02-26T01:08:53;16.55;;;4.53;;
65581;SDS011;52231;40.090;18.348;2024-02-26T01:11:21;18.50;;;4.35;;
65581;SDS011;52231;40.090;18.348;2024-02-26T01:13:48;17.35;;;5.10;;
65581;SDS011;52231;40.090;18.348;2024-02-26T01:16:20;18.02;;;4.82;;
65581;SDS011;52231;40.090;18.348;2024-02-26T01:18:48;14.93;;;4.30;;
65581;SDS011;52231;40.090;18.348;2024-02-26T01:21:16;14.82;;;4.53;;
65581;SDS011;52231;40.090;18.348;2024-02-26T01:23:44;18.17;;;5.45;;
65581;SDS011;52231;40.090;18.348;2024-02-26T01:26:12;12.60;;;4.38;;
65581;SDS011;52231;40.090;18.348;2024-02-26T01:28:40;15.75;;;4.03;;
65581;SDS011;52231;40.090;18.348;2024-02-26T01:31:09;13.35;;;3.92;;
65581;SDS011;52231;40.090;18.348;2024-02-26T01:33:37;15.75;;;4.45;;
65581;SDS011;52231;40.090;18.348;2024-02-26T01:36:05;16.70;;;4.90;;
65581;SDS011;52231;40.090;18.348;2024-02-26T01:38:33;12.98;;;4.32;;
65581;SDS011;52231;40.090;18.348;2024-02-26T01:41:01;14.70;;;4.50;;
65581;SDS011;52231;40.090;18.348;2024-02-26T01:43:30;14.73;;;4.60;;
65581;SDS011;52231;40.090;18.348;2024-02-26T01:45:58;17.75;;;4.80;;
65581;SDS011;52231;40.090;18.348;2024-02-26T01:48:26;17.55;;;4.97;;
65581;SDS011;52231;40.090;18.348;2024-02-26T01:50:54;15.10;;;5.20;;
65581;SDS011;52231;40.090;18.348;2024-02-26T01:53:22;16.23;;;6.07;;
65581;SDS011;52231;40.090;18.348;2024-02-26T01:55:51;13.98;;;4.55;;
65581;SDS011;52231;40.090;18.348;2024-02-26T01:58:19;20.25;;;5.95;;
65581;SDS011;52231;40.090;18.348;2024-02-26T02:00:48;18.20;;;5.30;;
65581;SDS011;52231;40.090;18.348;2024-02-26T02:03:16;17.58;;;5.72;;
65581;SDS011;52231;40.090;18.348;2024-02-26T02:05:44;15.63;;;5.25;;
65581;SDS011;52231;40.090;18.348;2024-02-26T02:08:12;17.17;;;5.35;;
65581;SDS011;52231;40.090;18.348;2024-02-26T02:10:41;17.83;;;6.07;;
65581;SDS011;52231;40.090;18.348;2024-02-26T02:13:10;19.30;;;5.95;;
65581;SDS011;52231;40.090;18.348;2024-02-26T02:15:38;18.50;;;6.03;;
65581;SDS011;52231;40.090;18.348;2024-02-26T02:18:06;19.75;;;6.25;;
65581;SDS011;52231;40.090;18.348;2024-02-26T02:20:35;15.57;;;6.07;;
65581;SDS011;52231;40.090;18.348;2024-02-26T02:23:03;15.48;;;6.43;;
65581;SDS011;52231;40.090;18.348;2024-02-26T02:25:31;17.15;;;6.25;;
65581;SDS011;52231;40.090;18.348;2024-02-26T02:27:59;22.10;;;6.15;;
65581;SDS011;52231;40.090;18.348;2024-02-26T02:32:58;20.67;;;6.22;;
65581;SDS011;52231;40.090;18.348;2024-02-26T02:35:26;16.75;;;6.20;;
65581;SDS011;52231;40.090;18.348;2024-02-26T02:37:57;14.35;;;6.10;;
65581;SDS011;52231;40.090;18.348;2024-02-26T02:40:26;16.63;;;6.15;;
65581;SDS011;52231;40.090;18.348;2024-02-26T02:42:54;19.95;;;6.18;;
65581;SDS011;52231;40.090;18.348;2024-02-26T02:45:22;13.25;;;6.30;;
65581;SDS011;52231;40.090;18.348;2024-02-26T02:47:50;14.98;;;5.93;;
65581;SDS011;52231;40.090;18.348;2024-02-26T02:50:18;17.83;;;6.68;;
65581;SDS011;52231;40.090;18.348;2024-02-26T02:52:46;18.27;;;6.47;;
65581;SDS011;52231;40.090;18.348;2024-02-26T02:55:14;16.13;;;6.10;;
65581;SDS011;52231;40.090;18.348;2024-02-26T02:57:42;16.52;;;6.32;;
65581;SDS011;52231;40.090;18.348;2024-02-26T03:00:12;16.08;;;6.00;;
65581;SDS011;52231;40.090;18.348;2024-02-26T03:02:40;20.20;;;6.72;;
65581;SDS011;52231;40.090;18.348;2024-02-26T03:05:08;14.50;;;6.18;;
65581;SDS011;52231;40.090;18.348;2024-02-26T03:07:36;18.80;;;6.18;;
65581;SDS011;52231;40.090;18.348;2024-02-26T03:10:05;16.33;;;6.68;;
65581;SDS011;52231;40.090;18.348;2024-02-26T03:12:36;18.13;;;6.43;;
65581;SDS011;52231;40.090;18.348;2024-02-26T03:15:04;15.35;;;6.53;;
65581;SDS011;52231;40.090;18.348;2024-02-26T03:17:32;16.67;;;5.85;;
65581;SDS011;52231;40.090;18.348;2024-02-26T03:20:02;16.50;;;6.80;;
65581;SDS011;52231;40.090;18.348;2024-02-26T03:22:51;18.20;;;6.60;;
65581;SDS011;52231;40.090;18.348;2024-02-26T03:25:19;16.85;;;6.43;;
65581;SDS011;52231;40.090;18.348;2024-02-26T03:27:47;16.15;;;6.70;;
65581;SDS011;52231;40.090;18.348;2024-02-26T03:30:16;17.25;;;6.15;;
65581;SDS011;52231;40.090;18.348;2024-02-26T03:32:44;16.45;;;6.25;;
65581;SDS011;52231;40.090;18.348;2024-02-26T03:35:12;18.88;;;6.53;;
65581;SDS011;52231;40.090;18.348;2024-02-26T03:37:40;20.48;;;6.18;;
65581;SDS011;52231;40.090;18.348;2024-02-26T03:40:08;15.38;;;6.20;;
65581;SDS011;52231;40.090;18.348;2024-02-26T03:42:37;17.95;;;6.80;;
65581;SDS011;52231;40.090;18.348;2024-02-26T03:45:05;21.10;;;6.40;;
65581;SDS011;52231;40.090;18.348;2024-02-26T03:47:33;21.60;;;6.32;;
65581;SDS011;52231;40.090;18.348;2024-02-26T03:50:02;18.15;;;5.65;;
65581;SDS011;52231;40.090;18.348;2024-02-26T03:52:31;17.58;;;5.90;;
65581;SDS011;52231;40.090;18.348;2024-02-26T03:55:01;17.65;;;6.38;;
65581;SDS011;52231;40.090;18.348;2024-02-26T03:57:29;16.85;;;5.97;;
65581;SDS011;52231;40.090;18.348;2024-02-26T03:59:57;18.38;;;5.32;;
65581;SDS011;52231;40.090;18.348;2024-02-26T04:02:25;16.15;;;5.85;;
65581;SDS011;52231;40.090;18.348;2024-02-26T04:07:22;14.77;;;5.40;;
65581;SDS011;52231;40.090;18.348;2024-02-26T04:09:50;18.75;;;5.35;;
65581;SDS011;52231;40.090;18.348;2024-02-26T04:12:17;20.05;;;6.18;;
65581;SDS011;52231;40.090;18.348;2024-02-26T04:14:46;18.02;;;6.20;;
65581;SDS011;52231;40.090;18.348;2024-02-26T04:17:14;15.88;;;5.60;;
65581;SDS011;52231;40.090;18.348;2024-02-26T04:19:42;17.35;;;5.75;;
65581;SDS011;52231;40.090;18.348;2024-02-26T04:22:10;16.95;;;5.43;;
65581;SDS011;52231;40.090;18.348;2024-02-26T04:24:38;14.63;;;4.90;;
65581;SDS011;52231;40.090;18.348;2024-02-26T04:27:06;18.15;;;5.85;;
65581;SDS011;52231;40.090;18.348;2024-02-26T04:29:34;17.95;;;4.90;;
65581;SDS011;52231;40.090;18.348;2024-02-26T04:32:03;13.38;;;4.78;;
65581;SDS011;52231;40.090;18.348;2024-02-26T04:34:32;17.08;;;5.20;;
65581;SDS011;52231;40.090;18.348;2024-02-26T04:37:00;16.38;;;5.40;;
65581;SDS011;52231;40.090;18.348;2024-02-26T04:39:28;18.70;;;4.97;;
65581;SDS011;52231;40.090;18.348;2024-02-26T04:41:55;16.15;;;5.60;;
65581;SDS011;52231;40.090;18.348;2024-02-26T04:44:24;15.95;;;5.28;;
65581;SDS011;52231;40.090;18.348;2024-02-26T04:46:52;16.38;;;5.05;;
65581;SDS011;52231;40.090;18.348;2024-02-26T04:49:19;16.52;;;4.50;;
65581;SDS011;52231;40.090;18.348;2024-02-26T04:51:48;14.98;;;4.28;;
65581;SDS011;52231;40.090;18.348;2024-02-26T04:54:15;13.63;;;4.85;;
65581;SDS011;52231;40.090;18.348;2024-02-26T04:56:44;16.67;;;4.80;;
65581;SDS011;52231;40.090;18.348;2024-02-26T04:59:12;19.75;;;4.25;;
65581;SDS011;52231;40.090;18.348;2024-02-26T05:01:40;14.93;;;5.53;;
65581;SDS011;52231;40.090;18.348;2024-02-26T05:04:09;17.63;;;4.45;;
65581;SDS011;52231;40.090;18.348;2024-02-26T05:06:37;16.17;;;4.28;;
65581;SDS011;52231;40.090;18.348;2024-02-26T05:09:05;14.27;;;4.70;;
65581;SDS011;52231;40.090;18.348;2024-02-26T05:11:33;18.13;;;4.63;;
65581;SDS011;52231;40.090;18.348;2024-02-26T05:14:03;16.42;;;5.13;;
65581;SDS011;52231;40.090;18.348;2024-02-26T05:16:31;17.98;;;5.45;;
65581;SDS011;52231;40.090;18.348;2024-02-26T05:18:59;16.98;;;4.78;;
65581;SDS011;52231;40.090;18.348;2024-02-26T05:21:27;20.23;;;5.07;;
65581;SDS011;52231;40.090;18.348;2024-02-26T05:23:55;16.80;;;4.80;;
65581;SDS011;52231;40.090;18.348;2024-02-26T05:26:23;17.65;;;5.25;;
65581;SDS011;52231;40.090;18.348;2024-02-26T05:28:51;17.52;;;7.15;;
65581;SDS011;52231;40.090;18.348;2024-02-26T05:31:19;22.10;;;8.98;;
65581;SDS011;52231;40.090;18.348;2024-02-26T05:33:47;15.15;;;5.13;;
65581;SDS011;52231;40.090;18.348;2024-02-26T05:36:18;14.45;;;4.45;;
65581;SDS011;52231;40.090;18.348;2024-02-26T05:38:49;16.25;;;5.07;;
65581;SDS011;52231;40.090;18.348;2024-02-26T05:41:18;15.40;;;5.20;;
65581;SDS011;52231;40.090;18.348;2024-02-26T05:43:50;15.52;;;5.00;;
65581;SDS011;52231;40.090;18.348;2024-02-26T05:46:18;14.77;;;4.97;;
65581;SDS011;52231;40.090;18.348;2024-02-26T05:48:48;20.50;;;5.25;;
65581;SDS011;52231;40.090;18.348;2024-02-26T05:51:19;19.08;;;5.60;;
65581;SDS011;52231;40.090;18.348;2024-02-26T05:53:47;15.50;;;4.65;;
65581;SDS011;52231;40.090;18.348;2024-02-26T05:56:21;13.32;;;4.18;;
65581;SDS011;52231;40.090;18.348;2024-02-26T05:58:50;20.27;;;5.25;;
65581;SDS011;52231;40.090;18.348;2024-02-26T06:01:19;16.30;;;4.60;;
65581;SDS011;52231;40.090;18.348;2024-02-26T06:03:47;14.13;;;4.85;;
65581;SDS011;52231;40.090;18.348;2024-02-26T06:06:16;15.10;;;4.20;;
65581;SDS011;52231;40.090;18.348;2024-02-26T06:08:45;15.85;;;4.03;;
65581;SDS011;52231;40.090;18.348;2024-02-26T06:11:13;16.15;;;4.45;;
65581;SDS011;52231;40.090;18.348;2024-02-26T06:13:41;13.27;;;5.22;;
65581;SDS011;52231;40.090;18.348;2024-02-26T06:16:09;16.27;;;4.60;;
65581;SDS011;52231;40.090;18.348;2024-02-26T06:18:38;16.83;;;4.53;;
65581;SDS011;52231;40.090;18.348;2024-02-26T06:21:09;16.30;;;4.32;;
65581;SDS011;52231;40.090;18.348;2024-02-26T06:23:38;12.30;;;4.38;;
65581;SDS011;52231;40.090;18.348;2024-02-26T06:26:07;17.23;;;4.63;;
65581;SDS011;52231;40.090;18.348;2024-02-26T06:28:35;15.73;;;4.40;;
65581;SDS011;52231;40.090;18.348;2024-02-26T06:31:04;12.43;;;4.07;;
65581;SDS011;52231;40.090;18.348;2024-02-26T06:33:32;14.43;;;4.38;;
65581;SDS011;52231;40.090;18.348;2024-02-26T06:36:00;13.23;;;4.70;;
65581;SDS011;52231;40.090;18.348;2024-02-26T06:38:28;12.70;;;4.32;;
65581;SDS011;52231;40.090;18.348;2024-02-26T06:40:56;15.48;;;4.30;;
65581;SDS011;52231;40.090;18.348;2024-02-26T06:43:25;14.10;;;3.88;;
65581;SDS011;52231;40.090;18.348;2024-02-26T06:45:52;10.35;;;4.22;;
65581;SDS011;52231;40.090;18.348;2024-02-26T06:48:22;10.20;;;3.67;;
65581;SDS011;52231;40.090;18.348;2024-02-26T06:50:51;16.15;;;4.30;;
65581;SDS011;52231;40.090;18.348;2024-02-26T06:53:19;13.30;;;3.63;;
65581;SDS011;52231;40.090;18.348;2024-02-26T06:55:47;13.50;;;3.25;;
65581;SDS011;52231;40.090;18.348;2024-02-26T06:58:17;13.88;;;3.25;;
65581;SDS011;52231;40.090;18.348;2024-02-26T07:00:45;11.30;;;3.17;;
65581;SDS011;52231;40.090;18.348;2024-02-26T07:03:13;13.55;;;2.90;;
65581;SDS011;52231;40.090;18.348;2024-02-26T07:05:41;10.70;;;2.85;;
65581;SDS011;52231;40.090;18.348;2024-02-26T07:08:11;12.20;;;2.65;;
65581;SDS011;52231;40.090;18.348;2024-02-26T07:10:39;8.95;;;3.08;;
65581;SDS011;52231;40.090;18.348;2024-02-26T07:13:07;17.52;;;4.03;;
65581;SDS011;52231;40.090;18.348;2024-02-26T07:15:36;12.52;;;3.55;;
65581;SDS011;52231;40.090;18.348;2024-02-26T07:18:04;11.77;;;4.10;;
65581;SDS011;52231;40.090;18.348;2024-02-26T07:20:32;10.80;;;3.42;;
65581;SDS011;52231;40.090;18.348;2024-02-26T07:23:00;10.93;;;3.05;;
65581;SDS011;52231;40.090;18.348;2024-02-26T07:25:28;15.73;;;3.33;;
65581;SDS011;52231;40.090;18.348;2024-02-26T07:27:56;8.30;;;2.65;;
65581;SDS011;52231;40.090;18.348;2024-02-26T07:30:24;15.35;;;2.53;;
65581;SDS011;52231;40.090;18.348;2024-02-26T07:32:52;10.68;;;2.67;;
65581;SDS011;52231;40.090;18.348;2024-02-26T07:35:20;10.98;;;2.60;;
65581;SDS011;52231;40.090;18.348;2024-02-26T07:37:48;9.77;;;2.60;;
65581;SDS011;52231;40.090;18.348;2024-02-26T07:40:17;9.82;;;2.47;;
65581;SDS011;52231;40.090;18.348;2024-02-26T07:42:46;8.95;;;2.38;;
65581;SDS011;52231;40.090;18.348;2024-02-26T07:45:16;8.10;;;2.55;;
65581;SDS011;52231;40.090;18.348;2024-02-26T07:47:47;12.23;;;2.58;;
65581;SDS011;52231;40.090;18.348;2024-02-26T07:50:16;8.10;;;2.25;;
65581;SDS011;52231;40.090;18.348;2024-02-26T07:52:45;9.52;;;2.20;;
65581;SDS011;52231;40.090;18.348;2024-02-26T07:55:13;9.07;;;2.42;;
65581;SDS011;52231;40.090;18.348;2024-02-26T07:57:41;11.80;;;2.78;;
65581;SDS011;52231;40.090;18.348;2024-02-26T08:00:11;7.13;;;2.15;;
65581;SDS011;52231;40.090;18.348;2024-02-26T08:02:42;6.72;;;2.20;;
65581;SDS011;52231;40.090;18.348;2024-02-26T08:05:11;7.28;;;1.92;;
65581;SDS011;52231;40.090;18.348;2024-02-26T08:07:39;9.20;;;2.55;;
65581;SDS011;52231;40.090;18.348;2024-02-26T08:10:07;9.90;;;2.20;;
65581;SDS011;52231;40.090;18.348;2024-02-26T08:15:04;5.82;;;2.10;;
65581;SDS011;52231;40.090;18.348;2024-02-26T08:17:32;5.97;;;2.03;;
65581;SDS011;52231;40.090;18.348;2024-02-26T08:20:01;8.27;;;2.35;;
65581;SDS011;52231;40.090;18.348;2024-02-26T08:22:29;7.95;;;1.80;;
65581;SDS011;52231;40.090;18.348;2024-02-26T08:24:58;7.28;;;2.00;;
65581;SDS011;52231;40.090;18.348;2024-02-26T08:29:54;9.68;;;2.50;;
65581;SDS011;52231;40.090;18.348;2024-02-26T08:32:24;9.38;;;2.42;;
65581;SDS011;52231;40.090;18.348;2024-02-26T08:34:52;6.80;;;2.20;;
65581;SDS011;52231;40.090;18.348;2024-02-26T08:37:20;9.95;;;2.25;;
65581;SDS011;52231;40.090;18.348;2024-02-26T08:39:48;9.18;;;1.92;;
65581;SDS011;52231;40.090;18.348;2024-02-26T08:42:16;6.05;;;1.80;;
65581;SDS011;52231;40.090;18.348;2024-02-26T08:44:44;7.97;;;2.13;;
65581;SDS011;52231;40.090;18.348;2024-02-26T08:47:12;6.25;;;2.20;;
65581;SDS011;52231;40.090;18.348;2024-02-26T08:49:44;7.78;;;1.92;;
65581;SDS011;52231;40.090;18.348;2024-02-26T08:52:13;9.82;;;2.30;;
65581;SDS011;52231;40.090;18.348;2024-02-26T08:54:41;8.82;;;2.03;;
65581;SDS011;52231;40.090;18.348;2024-02-26T08:57:09;7.20;;;2.30;;
65581;SDS011;52231;40.090;18.348;2024-02-26T08:59:37;6.55;;;2.00;;
65581;SDS011;52231;40.090;18.348;2024-02-26T09:02:05;7.20;;;2.33;;
65581;SDS011;52231;40.090;18.348;2024-02-26T09:04:35;6.63;;;2.13;;
65581;SDS011;52231;40.090;18.348;2024-02-26T09:07:03;9.80;;;2.03;;
65581;SDS011;52231;40.090;18.348;2024-02-26T09:09:31;9.40;;;2.10;;
65581;SDS011;52231;40.090;18.348;2024-02-26T09:11:59;9.73;;;2.05;;
65581;SDS011;52231;40.090;18.348;2024-02-26T09:14:27;7.60;;;2.05;;
65581;SDS011;52231;40.090;18.348;2024-02-26T09:16:55;6.32;;;2.10;;
65581;SDS011;52231;40.090;18.348;2024-02-26T09:19:24;7.22;;;2.10;;
65581;SDS011;52231;40.090;18.348;2024-02-26T09:21:54;7.55;;;2.00;;
65581;SDS011;52231;40.090;18.348;2024-02-26T09:24:26;6.20;;;2.08;;
65581;SDS011;52231;40.090;18.348;2024-02-26T09:26:54;6.25;;;2.15;;
65581;SDS011;52231;40.090;18.348;2024-02-26T09:31:50;14.63;;;3.22;;
65581;SDS011;52231;40.090;18.348;2024-02-26T09:34:18;8.23;;;2.20;;
65581;SDS011;52231;40.090;18.348;2024-02-26T09:36:46;5.60;;;2.20;;
65581;SDS011;52231;40.090;18.348;2024-02-26T09:39:14;6.20;;;2.05;;
65581;SDS011;52231;40.090;18.348;2024-02-26T09:41:48;5.68;;;1.88;;
65581;SDS011;52231;40.090;18.348;2024-02-26T09:44:18;6.25;;;2.10;;
65581;SDS011;52231;40.090;18.348;2024-02-26T09:46:49;6.15;;;1.98;;
65581;SDS011;52231;40.090;18.348;2024-02-26T09:49:20;8.32;;;2.25;;
65581;SDS011;52231;40.090;18.348;2024-02-26T09:51:52;7.93;;;2.22;;
65581;SDS011;52231;40.090;18.348;2024-02-26T09:54:23;6.53;;;1.60;;
65581;SDS011;52231;40.090;18.348;2024-02-26T09:56:54;6.00;;;1.80;;
65581;SDS011;52231;40.090;18.348;2024-02-26T09:59:33;9.45;;;2.03;;
65581;SDS011;52231;40.090;18.348;2024-02-26T10:02:13;5.18;;;1.92;;
65581;SDS011;52231;40.090;18.348;2024-02-26T10:04:43;5.57;;;2.03;;
65581;SDS011;52231;40.090;18.348;2024-02-26T10:07:13;5.38;;;1.90;;
65581;SDS011;52231;40.090;18.348;2024-02-26T10:09:41;8.65;;;2.05;;
65581;SDS011;52231;40.090;18.348;2024-02-26T10:12:10;8.02;;;2.08;;
65581;SDS011;52231;40.090;18.348;2024-02-26T10:14:43;6.90;;;2.05;;
65581;SDS011;52231;40.090;18.348;2024-02-26T10:17:11;5.47;;;2.00;;
65581;SDS011;52231;40.090;18.348;2024-02-26T10:19:39;5.63;;;1.88;;
65581;SDS011;52231;40.090;18.348;2024-02-26T10:22:07;7.05;;;1.85;;
65581;SDS011;52231;40.090;18.348;2024-02-26T10:24:36;7.28;;;2.10;;
65581;SDS011;52231;40.090;18.348;2024-02-26T10:27:04;8.15;;;2.42;;
65581;SDS011;52231;40.090;18.348;2024-02-26T10:29:34;8.82;;;2.15;;
65581;SDS011;52231;40.090;18.348;2024-02-26T10:32:02;8.40;;;2.08;;
65581;SDS011;52231;40.090;18.348;2024-02-26T10:34:30;8.38;;;2.33;;
65581;SDS011;52231;40.090;18.348;2024-02-26T10:37:00;6.38;;;1.88;;
65581;SDS011;52231;40.090;18.348;2024-02-26T10:39:30;7.97;;;2.05;;
65581;SDS011;52231;40.090;18.348;2024-02-26T10:41:58;7.85;;;1.90;;
65581;SDS011;52231;40.090;18.348;2024-02-26T10:44:50;8.32;;;2.15;;
65581;SDS011;52231;40.090;18.348;2024-02-26T10:47:19;7.65;;;2.10;;
65581;SDS011;52231;40.090;18.348;2024-02-26T10:50:06;10.57;;;2.30;;
65581;SDS011;52231;40.090;18.348;2024-02-26T10:52:36;7.30;;;2.17;;
65581;SDS011;52231;40.090;18.348;2024-02-26T10:55:05;7.10;;;1.95;;
65581;SDS011;52231;40.090;18.348;2024-02-26T10:57:38;10.10;;;2.30;;
65581;SDS011;52231;40.090;18.348;2024-02-26T11:00:08;6.88;;;1.85;;
65581;SDS011;52231;40.090;18.348;2024-02-26T11:02:41;8.90;;;2.22;;
65581;SDS011;52231;40.090;18.348;2024-02-26T11:05:11;6.65;;;2.13;;
65581;SDS011;52231;40.090;18.348;2024-02-26T11:07:41;7.68;;;1.90;;
65581;SDS011;52231;40.090;18.348;2024-02-26T11:10:09;8.43;;;2.25;;
65581;SDS011;52231;40.090;18.348;2024-02-26T11:12:39;6.53;;;2.17;;
65581;SDS011;52231;40.090;18.348;2024-02-26T11:15:09;5.60;;;2.03;;
65581;SDS011;52231;40.090;18.348;2024-02-26T11:20:05;8.13;;;2.15;;
65581;SDS011;52231;40.090;18.348;2024-02-26T11:22:38;5.10;;;1.98;;
65581;SDS011;52231;40.090;18.348;2024-02-26T11:25:06;7.35;;;1.75;;
65581;SDS011;52231;40.090;18.348;2024-02-26T11:27:37;7.80;;;2.00;;
65581;SDS011;52231;40.090;18.348;2024-02-26T11:30:10;5.85;;;1.92;;
65581;SDS011;52231;40.090;18.348;2024-02-26T11:32:39;4.03;;;1.90;;
65581;SDS011;52231;40.090;18.348;2024-02-26T11:35:08;7.47;;;2.40;;
65581;SDS011;52231;40.090;18.348;2024-02-26T11:37:37;8.38;;;2.17;;
65581;SDS011;52231;40.090;18.348;2024-02-26T11:40:11;8.10;;;1.88;;
65581;SDS011;52231;40.090;18.348;2024-02-26T11:42:43;9.88;;;2.25;;
65581;SDS011;52231;40.090;18.348;2024-02-26T11:50:40;8.20;;;2.42;;
65581;SDS011;52231;40.090;18.348;2024-02-26T11:53:19;6.45;;;2.00;;
65581;SDS011;52231;40.090;18.348;2024-02-26T11:58:47;7.70;;;2.30;;
65581;SDS011;52231;40.090;18.348;2024-02-26T12:01:36;7.80;;;2.10;;
65581;SDS011;52231;40.090;18.348;2024-02-26T12:04:11;5.00;;;1.90;;
65581;SDS011;52231;40.090;18.348;2024-02-26T12:06:51;6.07;;;1.90;;
65581;SDS011;52231;40.090;18.348;2024-02-26T12:09:36;5.95;;;1.83;;
65581;SDS011;52231;40.090;18.348;2024-02-26T12:12:29;6.55;;;1.85;;
65581;SDS011;52231;40.090;18.348;2024-02-26T12:14:57;8.65;;;2.28;;
65581;SDS011;52231;40.090;18.348;2024-02-26T12:17:26;6.70;;;2.13;;
65581;SDS011;52231;40.090;18.348;2024-02-26T12:19:54;8.07;;;2.08;;
65581;SDS011;52231;40.090;18.348;2024-02-26T12:22:35;8.52;;;1.90;;
65581;SDS011;52231;40.090;18.348;2024-02-26T12:25:08;7.57;;;2.10;;
65581;SDS011;52231;40.090;18.348;2024-02-26T12:27:37;6.93;;;2.00;;
65581;SDS011;52231;40.090;18.348;2024-02-26T12:30:05;6.47;;;1.90;;
65581;SDS011;52231;40.090;18.348;2024-02-26T12:32:34;5.20;;;1.80;;
65581;SDS011;52231;40.090;18.348;2024-02-26T12:35:03;3.80;;;1.70;;
65581;SDS011;52231;40.090;18.348;2024-02-26T12:37:33;7.20;;;1.80;;
65581;SDS011;52231;40.090;18.348;2024-02-26T12:40:06;11.57;;;2.63;;
65581;SDS011;52231;40.090;18.348;2024-02-26T12:42:36;9.18;;;1.92;;
65581;SDS011;52231;40.090;18.348;2024-02-26T12:45:08;10.65;;;2.00;;
65581;SDS011;52231;40.090;18.348;2024-02-26T12:47:39;5.75;;;1.75;;
65581;SDS011;52231;40.090;18.348;2024-02-26T12:50:08;5.22;;;2.20;;
65581;SDS011;52231;40.090;18.348;2024-02-26T12:52:56;5.93;;;1.95;;
65581;SDS011;52231;40.090;18.348;2024-02-26T12:55:24;5.30;;;1.98;;
65581;SDS011;52231;40.090;18.348;2024-02-26T12:57:53;5.38;;;2.00;;
65581;SDS011;52231;40.090;18.348;2024-02-26T13:00:25;6.80;;;2.33;;
65581;SDS011;52231;40.090;18.348;2024-02-26T13:02:55;3.63;;;2.05;;
65581;SDS011;52231;40.090;18.348;2024-02-26T13:05:24;9.27;;;2.67;;
65581;SDS011;52231;40.090;18.348;2024-02-26T13:07:53;8.05;;;2.03;;
65581;SDS011;52231;40.090;18.348;2024-02-26T13:10:21;9.20;;;2.33;;
65581;SDS011;52231;40.090;18.348;2024-02-26T13:12:49;13.32;;;3.72;;
65581;SDS011;52231;40.090;18.348;2024-02-26T13:15:21;6.22;;;2.40;;
65581;SDS011;52231;40.090;18.348;2024-02-26T13:17:49;6.22;;;2.10;;
65581;SDS011;52231;40.090;18.348;2024-02-26T13:20:30;5.60;;;2.20;;
65581;SDS011;52231;40.090;18.348;2024-02-26T13:23:00;9.43;;;3.05;;
65581;SDS011;52231;40.090;18.348;2024-02-26T13:25:55;13.75;;;3.63;;
65581;SDS011;52231;40.090;18.348;2024-02-26T13:28:24;10.32;;;3.75;;
65581;SDS011;52231;40.090;18.348;2024-02-26T13:30:55;7.45;;;2.08;;
65581;SDS011;52231;40.090;18.348;2024-02-26T13:33:26;10.75;;;2.53;;
65581;SDS011;52231;40.090;18.348;2024-02-26T13:35:56;8.60;;;3.40;;
65581;SDS011;52231;40.090;18.348;2024-02-26T13:38:25;8.88;;;2.53;;
65581;SDS011;52231;40.090;18.348;2024-02-26T13:40:55;14.90;;;4.70;;
65581;SDS011;52231;40.090;18.348;2024-02-26T13:43:23;9.88;;;2.60;;
65581;SDS011;52231;40.090;18.348;2024-02-26T13:45:57;5.55;;;1.70;;
65581;SDS011;52231;40.090;18.348;2024-02-26T13:48:25;10.80;;;3.45;;
65581;SDS011;52231;40.090;18.348;2024-02-26T13:50:54;7.90;;;2.90;;
65581;SDS011;52231;40.090;18.348;2024-02-26T13:53:22;9.02;;;2.53;;
65581;SDS011;52231;40.090;18.348;2024-02-26T13:55:51;9.93;;;3.60;;
65581;SDS011;52231;40.090;18.348;2024-02-26T13:58:19;14.85;;;4.55;;
65581;SDS011;52231;40.090;18.348;2024-02-26T14:00:51;9.52;;;3.58;;
65581;SDS011;52231;40.090;18.348;2024-02-26T14:03:22;6.07;;;2.38;;
65581;SDS011;52231;40.090;18.348;2024-02-26T14:05:50;5.95;;;2.00;;
65581;SDS011;52231;40.090;18.348;2024-02-26T14:08:18;6.55;;;2.28;;
65581;SDS011;52231;40.090;18.348;2024-02-26T14:10:48;6.13;;;2.08;;
65581;SDS011;52231;40.090;18.348;2024-02-26T14:13:17;6.75;;;1.75;;
65581;SDS011;52231;40.090;18.348;2024-02-26T14:15:45;8.93;;;2.40;;
65581;SDS011;52231;40.090;18.348;2024-02-26T14:18:13;6.80;;;2.40;;
65581;SDS011;52231;40.090;18.348;2024-02-26T14:20:41;6.50;;;2.20;;
65581;SDS011;52231;40.090;18.348;2024-02-26T14:25:37;3.85;;;1.65;;
65581;SDS011;52231;40.090;18.348;2024-02-26T14:28:15;6.13;;;2.10;;
65581;SDS011;52231;40.090;18.348;2024-02-26T14:30:45;6.72;;;2.35;;
65581;SDS011;52231;40.090;18.348;2024-02-26T14:33:13;7.35;;;2.25;;
65581;SDS011;52231;40.090;18.348;2024-02-26T14:35:41;12.50;;;3.20;;
65581;SDS011;52231;40.090;18.348;2024-02-26T14:38:09;6.43;;;2.30;;
65581;SDS011;52231;40.090;18.348;2024-02-26T14:40:37;4.32;;;2.20;;
65581;SDS011;52231;40.090;18.348;2024-02-26T14:43:05;8.73;;;2.10;;
65581;SDS011;52231;40.090;18.348;2024-02-26T14:45:37;9.05;;;2.20;;
65581;SDS011;52231;40.090;18.348;2024-02-26T14:48:05;6.82;;;2.47;;
65581;SDS011;52231;40.090;18.348;2024-02-26T14:50:35;6.43;;;2.33;;
65581;SDS011;52231;40.090;18.348;2024-02-26T14:53:03;7.03;;;2.67;;
65581;SDS011;52231;40.090;18.348;2024-02-26T14:55:31;7.68;;;2.80;;
65581;SDS011;52231;40.090;18.348;2024-02-26T14:57:59;6.72;;;2.03;;
65581;SDS011;52231;40.090;18.348;2024-02-26T15:00:27;9.15;;;2.97;;
65581;SDS011;52231;40.090;18.348;2024-02-26T15:02:56;8.40;;;2.17;;
65581;SDS011;52231;40.090;18.348;2024-02-26T15:05:24;6.50;;;2.20;;
65581;SDS011;52231;40.090;18.348;2024-02-26T15:07:52;7.22;;;2.75;;